Time;durP1;ratioP1;P1;durP2;ratioP2;P2;SDS_P1;SDS_P2;PMS_P1;PMS_P2;Temp;Humidity;BMP_temperature;BMP_pressure;BME280_temperature;BME280_humidity;BME280_pressure;Samples;Min_cycle;Max_cycle;Signal;HPM_P1;HPM_P2
2023/11/19 00:01:00;;;;;;;1.42;1.08;;;22.60;59.10;;;;;;4916016;28;86806;-92
2023/11/19 00:03:26;;;;;;;2.03;1.10;;;22.60;59.30;;;;;;4915091;28;86610;-92
2023/11/19 00:05:52;;;;;;;2.13;0.98;;;22.50;59.20;;;;;;4913113;28;86094;-91
2023/11/19 00:08:20;;;;;;;2.28;1.20;;;22.50;59.20;;;;;;4914161;28;90272;-90
2023/11/19 00:10:46;;;;;;;1.67;0.90;;;22.50;59.00;;;;;;4914207;28;88367;-91
2023/11/19 00:13:12;;;;;;;2.58;0.98;;;22.50;59.10;;;;;;4915805;28;86584;-91
2023/11/19 00:15:39;;;;;;;1.85;1.17;;;22.50;59.20;;;;;;4914986;28;86283;-91
2023/11/19 00:18:04;;;;;;;1.92;1.13;;;22.50;59.20;;;;;;4914977;28;89183;-91
2023/11/19 00:20:31;;;;;;;1.50;1.10;;;22.40;59.20;;;;;;4914943;28;92048;-91
2023/11/19 00:22:57;;;;;;;1.73;0.90;;;22.40;59.20;;;;;;4933172;28;86799;-92
2023/11/19 00:25:23;;;;;;;2.65;1.00;;;22.40;59.30;;;;;;4914742;28;86444;-91
2023/11/19 00:27:50;;;;;;;1.23;0.77;;;22.40;59.30;;;;;;4895645;28;89212;-91
2023/11/19 00:30:16;;;;;;;1.52;1.20;;;22.40;59.30;;;;;;4909940;28;88204;-90
2023/11/19 00:32:42;;;;;;;1.38;1.00;;;22.40;59.40;;;;;;4913939;28;86242;-90
2023/11/19 00:35:15;;;;;;;2.17;0.90;;;22.30;59.30;;;;;;4915418;28;85945;-91
2023/11/19 00:37:42;;;;;;;1.20;0.90;;;22.30;59.10;;;;;;4911325;28;88174;-92
2023/11/19 00:40:11;;;;;;;2.35;1.02;;;22.30;59.10;;;;;;4899427;28;88946;-91
2023/11/19 00:42:37;;;;;;;1.08;0.88;;;22.30;59.20;;;;;;4916273;28;86164;-91
2023/11/19 00:45:03;;;;;;;1.83;1.08;;;22.30;59.30;;;;;;4909172;28;85878;-92
2023/11/19 00:47:31;;;;;;;1.85;1.08;;;22.30;59.40;;;;;;4914007;28;88387;-91
2023/11/19 00:49:56;;;;;;;1.77;0.95;;;22.30;59.40;;;;;;4899468;28;86219;-91
2023/11/19 00:52:22;;;;;;;1.58;0.90;;;22.20;59.20;;;;;;4901123;28;86198;-91
2023/11/19 00:54:48;;;;;;;2.60;1.00;;;22.20;59.20;;;;;;4914748;28;85822;-91
2023/11/19 00:57:15;;;;;;;1.50;0.90;;;22.20;59.20;;;;;;4913800;28;88035;-91
2023/11/19 00:59:44;;;;;;;1.30;0.90;;;22.20;59.10;;;;;;4928944;28;88841;-91
2023/11/19 01:02:09;;;;;;;1.30;1.13;;;22.20;59.10;;;;;;4930900;28;86033;-92
2023/11/19 01:04:35;;;;;;;1.95;1.00;;;22.20;59.30;;;;;;4915634;28;86158;-91
2023/11/19 01:07:04;;;;;;;1.58;1.00;;;22.20;59.20;;;;;;4914888;28;89011;-91
2023/11/19 01:09:32;;;;;;;1.75;0.93;;;22.20;59.10;;;;;;4914371;28;87805;-91
2023/11/19 01:11:58;;;;;;;1.02;0.80;;;22.10;59.30;;;;;;4914741;28;86399;-91
2023/11/19 01:14:24;;;;;;;2.42;0.77;;;22.10;59.30;;;;;;4914319;28;86242;-91
2023/11/19 01:16:50;;;;;;;1.13;0.70;;;22.10;59.30;;;;;;4916563;28;88140;-92
2023/11/19 01:19:23;;;;;;;1.35;0.82;;;22.10;59.20;;;;;;4916888;28;88703;-90
2023/11/19 01:21:50;;;;;;;0.57;0.57;;;22.10;59.40;;;;;;4917668;28;86244;-91
2023/11/19 01:24:16;;;;;;;1.70;0.95;;;22.10;59.40;;;;;;4916601;28;86268;-92
2023/11/19 01:26:45;;;;;;;1.33;0.80;;;22.10;59.40;;;;;;4917388;28;88879;-91
2023/11/19 01:29:14;;;;;;;0.85;0.75;;;22.10;59.30;;;;;;4905942;28;88870;-92
2023/11/19 01:31:42;;;;;;;1.58;1.05;;;22.10;59.40;;;;;;4905981;28;85700;-91
2023/11/19 01:34:09;;;;;;;1.73;1.10;;;22.00;59.30;;;;;;4919187;28;86228;-91
2023/11/19 01:36:34;;;;;;;1.25;0.80;;;22.00;59.30;;;;;;4917655;28;89481;-91
2023/11/19 01:39:00;;;;;;;1.48;0.95;;;22.00;59.60;;;;;;4917591;28;88192;-91
2023/11/19 01:41:27;;;;;;;1.27;0.82;;;22.00;59.40;;;;;;4931636;28;86257;-91
2023/11/19 01:43:58;;;;;;;1.40;0.88;;;22.00;59.50;;;;;;4919590;28;86021;-91
2023/11/19 01:46:24;;;;;;;1.83;1.10;;;22.00;59.40;;;;;;4935645;28;88104;-91
2023/11/19 01:48:51;;;;;;;1.27;0.93;;;22.00;59.40;;;;;;4916929;28;88803;-92
2023/11/19 01:51:19;;;;;;;1.48;0.75;;;22.00;59.40;;;;;;4918709;28;86394;-91
2023/11/19 01:54:03;;;;;;;1.13;0.88;;;22.00;59.50;;;;;;4919305;28;86527;-91
2023/11/19 01:56:30;;;;;;;1.95;1.00;;;21.90;59.50;;;;;;4919322;28;89457;-91
2023/11/19 01:58:58;;;;;;;1.38;0.98;;;21.90;59.50;;;;;;4901855;28;87467;-92
2023/11/19 02:01:24;;;;;;;1.17;0.80;;;21.90;59.60;;;;;;4919294;28;87055;-91
2023/11/19 02:03:50;;;;;;;1.48;0.73;;;21.90;59.50;;;;;;4915679;28;86267;-91
2023/11/19 02:06:17;;;;;;;1.52;1.08;;;21.90;59.60;;;;;;4915594;28;88558;-91
2023/11/19 02:08:43;;;;;;;2.13;1.10;;;21.90;59.50;;;;;;4917156;28;88662;-92
2023/11/19 02:11:11;;;;;;;2.05;0.93;;;21.90;59.50;;;;;;4917716;28;86071;-91
2023/11/19 02:13:38;;;;;;;1.00;0.70;;;21.90;59.40;;;;;;4902748;28;86501;-91
2023/11/19 02:16:05;;;;;;;0.70;0.63;;;21.90;59.40;;;;;;4916793;28;89426;-91
2023/11/19 02:18:31;;;;;;;1.50;0.82;;;21.90;59.60;;;;;;4914618;28;87872;-90
2023/11/19 02:21:00;;;;;;;2.10;1.08;;;21.90;59.60;;;;;;4915498;28;90170;-90
2023/11/19 02:23:30;;;;;;;1.75;0.90;;;21.90;59.60;;;;;;4915482;28;87749;-91
2023/11/19 02:26:35;;;;;;;1.00;0.70;;;21.90;59.60;;;;;;4914270;28;89168;-91
2023/11/19 02:29:01;;;;;;;1.77;1.02;;;21.90;59.50;;;;;;4872704;28;90431;-90
2023/11/19 02:31:27;;;;;;;1.58;0.73;;;21.80;59.50;;;;;;4914525;28;89997;-90
2023/11/19 02:33:53;;;;;;;2.75;1.13;;;21.80;59.60;;;;;;4913081;28;87444;-91
2023/11/19 02:36:19;;;;;;;1.13;0.90;;;21.80;59.60;;;;;;4906933;28;89721;-91
2023/11/19 02:38:50;;;;;;;1.67;1.00;;;21.80;59.60;;;;;;4917462;28;92655;-91
2023/11/19 02:41:19;;;;;;;1.33;0.90;;;21.80;59.70;;;;;;4916256;28;88972;-89
2023/11/19 02:43:44;;;;;;;1.10;0.80;;;21.80;59.70;;;;;;4916305;28;87621;-90
2023/11/19 02:46:10;;;;;;;1.85;0.70;;;21.80;59.80;;;;;;4915098;28;89333;-90
2023/11/19 02:48:40;;;;;;;1.10;0.82;;;21.80;59.80;;;;;;4913821;28;89578;-91
2023/11/19 02:51:09;;;;;;;1.20;0.80;;;21.80;59.70;;;;;;4932526;28;90353;-91
2023/11/19 02:53:35;;;;;;;1.85;0.90;;;21.80;59.60;;;;;;4922436;28;88285;-91
2023/11/19 02:56:06;;;;;;;0.70;0.60;;;21.70;59.60;;;;;;4925599;28;89156;-91
2023/11/19 02:58:32;;;;;;;1.60;0.85;;;21.70;59.60;;;;;;4923628;28;90768;-90
2023/11/19 03:00:59;;;;;;;0.98;0.88;;;21.70;59.60;;;;;;4930496;28;88800;-90
2023/11/19 03:03:30;;;;;;;1.30;0.90;;;21.70;59.50;;;;;;4910822;28;86987;-91
2023/11/19 03:05:57;;;;;;;1.08;0.70;;;21.80;59.50;;;;;;4919846;28;89296;-91
2023/11/19 03:08:23;;;;;;;1.30;0.85;;;21.70;59.30;;;;;;4903998;28;90271;-91
2023/11/19 03:10:49;;;;;;;1.42;0.70;;;21.70;59.40;;;;;;4915881;28;90136;-91
2023/11/19 03:13:17;;;;;;;0.85;0.68;;;21.70;59.60;;;;;;4917128;28;88074;-91
2023/11/19 03:15:50;;;;;;;2.15;1.00;;;21.70;59.50;;;;;;4930855;28;89123;-91
2023/11/19 03:18:16;;;;;;;1.45;0.90;;;21.70;59.60;;;;;;4913815;28;90914;-90
2023/11/19 03:20:42;;;;;;;2.17;0.90;;;21.70;59.60;;;;;;4916026;28;91390;-92
2023/11/19 03:23:08;;;;;;;2.40;1.27;;;21.70;59.40;;;;;;4914389;28;87568;-91
2023/11/19 03:25:37;;;;;;;1.48;0.80;;;21.70;59.50;;;;;;4899865;28;87654;-91
2023/11/19 03:28:04;;;;;;;1.77;0.80;;;21.60;59.30;;;;;;4912932;28;90356;-91
2023/11/19 03:30:30;;;;;;;1.20;0.80;;;21.70;59.40;;;;;;4914986;28;87503;-93
2023/11/19 03:32:57;;;;;;;0.90;0.68;;;21.60;59.40;;;;;;4915439;28;88112;-92
2023/11/19 03:35:25;;;;;;;1.17;0.77;;;21.60;59.50;;;;;;4914673;28;89074;-91
2023/11/19 03:37:51;;;;;;;0.90;0.80;;;21.60;59.50;;;;;;4915314;28;89784;-91
2023/11/19 03:40:19;;;;;;;0.60;0.60;;;21.60;59.50;;;;;;4915070;28;89265;-90
2023/11/19 03:42:47;;;;;;;0.93;0.80;;;21.60;59.50;;;;;;4907076;28;88520;-92
2023/11/19 03:45:14;;;;;;;2.30;0.90;;;21.60;59.50;;;;;;4911554;28;89143;-91
2023/11/19 03:47:40;;;;;;;1.33;0.70;;;21.60;59.60;;;;;;4915138;28;88149;-91
2023/11/19 03:50:08;;;;;;;0.82;0.75;;;21.60;59.60;;;;;;4915684;28;89996;-91
2023/11/19 03:52:34;;;;;;;1.35;0.70;;;21.60;59.50;;;;;;4915815;28;87449;-90
2023/11/19 03:55:05;;;;;;;1.52;0.80;;;21.60;59.40;;;;;;4915764;28;89247;-91
2023/11/19 03:57:31;;;;;;;1.45;1.05;;;21.60;59.50;;;;;;4922196;28;90835;-89
2023/11/19 03:59:58;;;;;;;1.40;0.90;;;21.60;59.40;;;;;;4922299;28;89248;-91
2023/11/19 04:02:27;;;;;;;1.42;0.90;;;21.60;59.40;;;;;;4923786;28;88097;-91
2023/11/19 04:04:54;;;;;;;1.15;0.85;;;21.60;59.40;;;;;;4920526;28;88165;-90
2023/11/19 04:07:20;;;;;;;1.13;0.60;;;21.60;59.40;;;;;;4914900;28;91234;-91
2023/11/19 04:09:46;;;;;;;1.20;0.70;;;21.60;59.50;;;;;;4915505;28;90080;-91
2023/11/19 04:12:12;;;;;;;1.52;0.80;;;21.60;59.50;;;;;;4915929;28;88332;-91
2023/11/19 04:14:40;;;;;;;0.70;0.60;;;21.50;59.50;;;;;;4914884;28;89337;-91
2023/11/19 04:17:06;;;;;;;1.23;0.75;;;21.50;59.40;;;;;;4914918;28;90221;-93
2023/11/19 04:19:32;;;;;;;1.50;0.90;;;21.50;59.40;;;;;;4914294;28;90693;-91
2023/11/19 04:21:58;;;;;;;0.85;0.70;;;21.50;59.40;;;;;;4913452;28;87526;-91
2023/11/19 04:24:29;;;;;;;1.63;0.77;;;21.50;59.50;;;;;;4914574;28;87957;-91
2023/11/19 04:26:54;;;;;;;0.60;0.60;;;21.50;59.50;;;;;;4917518;28;90817;-92
2023/11/19 04:29:20;;;;;;;0.95;0.70;;;21.50;59.70;;;;;;4919563;28;88707;-91
2023/11/19 04:31:46;;;;;;;2.17;0.82;;;21.50;59.60;;;;;;4913354;28;88706;-92
2023/11/19 04:34:14;;;;;;;1.52;0.90;;;21.50;59.60;;;;;;4914323;28;87788;-91
2023/11/19 04:36:39;;;;;;;1.30;0.77;;;21.50;59.60;;;;;;4914848;28;90226;-91
2023/11/19 04:39:12;;;;;;;3.10;1.10;;;21.50;59.60;;;;;;4913923;28;90328;-91
2023/11/19 04:41:53;;;;;;;1.00;0.60;;;21.50;59.70;;;;;;4915011;28;87445;-90
2023/11/19 04:44:20;;;;;;;1.00;0.70;;;21.50;59.60;;;;;;4907407;28;88024;-91
2023/11/19 04:46:47;;;;;;;0.70;0.70;;;21.50;59.70;;;;;;4910982;28;90294;-92
2023/11/19 04:49:14;;;;;;;2.30;0.80;;;21.50;59.60;;;;;;4929997;28;89965;-91
2023/11/19 04:51:43;;;;;;;1.13;0.93;;;21.40;59.50;;;;;;4907601;28;87442;-91
2023/11/19 04:54:10;;;;;;;1.13;0.82;;;21.40;59.50;;;;;;4936714;28;88909;-91
2023/11/19 04:56:37;;;;;;;2.58;0.80;;;21.40;59.50;;;;;;4920442;28;89769;-91
2023/11/19 04:59:05;;;;;;;1.33;1.00;;;21.40;59.50;;;;;;4905728;28;90616;-92
2023/11/19 05:01:32;;;;;;;1.60;0.85;;;21.40;59.50;;;;;;4925179;28;87393;-91
2023/11/19 05:04:00;;;;;;;0.88;0.68;;;21.40;59.40;;;;;;4923484;28;89892;-91
2023/11/19 05:06:31;;;;;;;1.40;0.75;;;21.40;59.50;;;;;;4893245;28;89078;-91
2023/11/19 05:09:01;;;;;;;2.25;1.20;;;21.40;59.50;;;;;;4913846;28;90145;-91
2023/11/19 05:11:28;;;;;;;1.15;0.82;;;21.40;59.60;;;;;;4922812;28;87616;-91
2023/11/19 05:13:54;;;;;;;1.48;0.90;;;21.40;59.50;;;;;;4912321;28;88126;-92
2023/11/19 05:16:20;;;;;;;1.00;0.55;;;21.40;60.00;;;;;;4914238;28;90947;-92
2023/11/19 05:18:48;;;;;;;0.95;0.73;;;21.40;59.40;;;;;;4912916;28;90131;-91
2023/11/19 05:21:17;;;;;;;1.25;0.80;;;21.40;59.40;;;;;;4912624;28;88956;-92
2023/11/19 05:23:43;;;;;;;0.73;0.60;;;21.40;59.50;;;;;;4913714;28;88283;-91
2023/11/19 05:26:16;;;;;;;1.08;0.70;;;21.40;59.40;;;;;;4913517;28;90202;-91
2023/11/19 05:28:44;;;;;;;1.30;0.60;;;21.30;59.30;;;;;;4914122;28;88805;-91
2023/11/19 05:31:09;;;;;;;1.35;0.80;;;21.30;59.40;;;;;;4913814;28;87566;-92
2023/11/19 05:33:35;;;;;;;0.85;0.70;;;21.30;59.40;;;;;;4914008;28;92911;-91
2023/11/19 05:36:03;;;;;;;1.58;0.60;;;21.30;59.50;;;;;;4915054;28;90478;-92
2023/11/19 05:38:29;;;;;;;1.55;0.75;;;21.30;59.40;;;;;;4912959;28;90079;-91
2023/11/19 05:40:55;;;;;;;0.63;0.63;;;21.30;59.60;;;;;;4912675;28;87903;-92
2023/11/19 05:43:21;;;;;;;1.08;0.70;;;21.30;59.30;;;;;;4912629;28;87632;-91
2023/11/19 05:45:47;;;;;;;0.82;0.60;;;21.30;60.10;;;;;;4912171;28;91590;-92
2023/11/19 05:48:13;;;;;;;1.08;0.65;;;21.30;59.20;;;;;;4914115;28;91353;-91
2023/11/19 05:50:39;;;;;;;0.80;0.65;;;21.30;59.30;;;;;;4897809;28;87778;-92
2023/11/19 05:53:06;;;;;;;1.73;0.82;;;21.30;59.30;;;;;;4905455;28;89102;-93
2023/11/19 05:55:54;;;;;;;0.60;0.60;;;21.30;59.30;;;;;;4913883;28;90254;-92
2023/11/19 05:58:23;;;;;;;1.05;0.70;;;21.30;59.30;;;;;;4911053;28;93118;-93
2023/11/19 06:00:52;;;;;;;1.40;0.93;;;21.30;59.40;;;;;;4913781;28;87464;-90
2023/11/19 06:03:18;;;;;;;1.17;0.70;;;21.30;59.50;;;;;;4897949;28;89270;-92
2023/11/19 06:05:49;;;;;;;0.90;0.77;;;21.30;59.50;;;;;;4901156;28;89267;-91
2023/11/19 06:08:15;;;;;;;1.25;0.63;;;21.30;59.40;;;;;;4916674;28;88715;-92
2023/11/19 06:10:41;;;;;;;0.75;0.57;;;21.30;59.40;;;;;;4918057;28;88685;-91
2023/11/19 06:13:09;;;;;;;2.25;0.80;;;21.30;59.40;;;;;;4916445;28;88434;-92
2023/11/19 06:15:36;;;;;;;1.65;0.90;;;21.20;59.30;;;;;;4916155;28;89321;-91
2023/11/19 06:18:03;;;;;;;1.00;0.68;;;21.20;59.50;;;;;;4917097;28;88457;-91
2023/11/19 06:20:29;;;;;;;1.48;0.80;;;21.20;59.50;;;;;;4915032;28;88338;-92
2023/11/19 06:22:56;;;;;;;1.63;0.70;;;21.20;59.40;;;;;;4915785;28;87979;-92
2023/11/19 06:25:23;;;;;;;1.00;0.60;;;21.20;59.40;;;;;;4916211;28;89725;-91
2023/11/19 06:27:51;;;;;;;1.00;0.73;;;21.20;59.60;;;;;;4916971;28;90075;-91
2023/11/19 06:30:18;;;;;;;1.52;0.77;;;21.20;59.40;;;;;;4916355;28;87607;-92
2023/11/19 06:32:44;;;;;;;1.50;0.90;;;21.20;59.50;;;;;;4917225;28;87751;-91
2023/11/19 06:35:10;;;;;;;2.53;0.80;;;21.20;59.40;;;;;;4917272;28;91622;-91
2023/11/19 06:37:38;;;;;;;0.95;0.70;;;21.20;59.50;;;;;;4925692;28;89985;-91
2023/11/19 06:40:09;;;;;;;1.10;0.80;;;21.20;59.30;;;;;;4917395;28;88354;-92
2023/11/19 06:42:34;;;;;;;1.13;0.80;;;21.20;59.40;;;;;;4915486;28;88205;-92
2023/11/19 06:45:00;;;;;;;1.13;0.60;;;21.20;59.40;;;;;;4915849;28;89658;-91
2023/11/19 06:47:29;;;;;;;1.92;0.85;;;21.20;59.50;;;;;;4914500;28;90212;-92
2023/11/19 06:49:55;;;;;;;1.40;0.80;;;21.20;59.50;;;;;;4914663;28;88717;-91
2023/11/19 06:52:21;;;;;;;1.42;0.80;;;21.20;59.60;;;;;;4917772;28;90608;-90
2023/11/19 06:54:47;;;;;;;1.75;0.70;;;21.20;59.40;;;;;;4916171;28;89255;-92
2023/11/19 06:57:14;;;;;;;1.38;0.95;;;21.20;59.40;;;;;;4904949;28;89754;-92
2023/11/19 06:59:39;;;;;;;0.73;0.57;;;21.20;59.50;;;;;;4914991;28;87961;-91
2023/11/19 07:02:06;;;;;;;0.77;0.65;;;21.20;59.40;;;;;;4934420;28;89300;-89
2023/11/19 07:04:35;;;;;;;2.80;0.70;;;21.10;59.30;;;;;;4922586;28;89414;-89
2023/11/19 07:07:01;;;;;;;1.20;0.63;;;21.10;59.40;;;;;;4923683;28;89017;-92
2023/11/19 07:09:29;;;;;;;1.02;0.73;;;21.10;60.30;;;;;;4921639;28;88363;-92
2023/11/19 07:11:55;;;;;;;2.37;1.37;;;21.20;59.80;;;;;;4917208;28;88770;-92
2023/11/19 07:14:23;;;;;;;5.57;1.70;;;21.20;59.70;;;;;;4914990;28;89530;-90
2023/11/19 07:16:50;;;;;;;3.78;1.20;;;21.20;59.70;;;;;;4916933;28;89229;-90
2023/11/19 07:19:18;;;;;;;2.53;0.95;;;21.20;59.70;;;;;;4938810;28;87309;-92
2023/11/19 07:25:05;;;;;;;4.82;1.38;;;21.30;59.60;;;;;;4927436;28;88208;-96
2023/11/19 07:27:32;;;;;;;6.72;1.60;;;21.30;59.50;;;;;;4931789;28;89440;-96
2023/11/19 07:30:23;;;;;;;6.07;2.15;;;21.30;59.80;;;;;;4904499;28;88156;-95
2023/11/19 07:32:52;;;;;;;11.60;2.78;;;21.40;59.90;;;;;;4899812;28;87792;-94
2023/11/19 07:35:24;;;;;;;5.88;1.85;;;21.40;59.70;;;;;;4912831;28;90322;-90
2023/11/19 07:37:52;;;;;;;7.90;2.17;;;21.40;59.70;;;;;;4919536;28;87421;-93
2023/11/19 07:40:19;;;;;;;6.63;2.10;;;21.50;59.80;;;;;;4917589;28;88122;-95
2023/11/19 07:43:26;;;;;;;11.32;2.83;;;21.50;59.70;;;;;;4921854;28;89371;-94
2023/11/19 07:51:03;;;;;;;5.72;1.63;;;21.50;60.00;;;;;;5568131;22;88823;-90
2023/11/19 07:53:28;;;;;;;5.93;1.80;;;21.50;60.00;;;;;;4918217;28;90725;-90
2023/11/19 07:55:55;;;;;;;3.42;1.88;;;21.50;60.30;;;;;;4922981;28;90237;-90
2023/11/19 07:58:20;;;;;;;6.10;1.85;;;21.50;60.30;;;;;;4939122;28;87457;-90
2023/11/19 08:00:48;;;;;;;5.88;1.67;;;21.50;60.50;;;;;;4922773;28;87082;-90
2023/11/19 08:03:14;;;;;;;4.95;1.52;;;21.50;60.60;;;;;;4922113;28;87468;-90
2023/11/19 08:05:40;;;;;;;2.90;1.60;;;21.50;60.60;;;;;;4897230;28;92793;-90
2023/11/19 08:08:06;;;;;;;3.80;1.45;;;21.50;60.90;;;;;;4921769;28;89806;-92
2023/11/19 08:10:33;;;;;;;6.10;1.33;;;21.50;60.70;;;;;;4925798;28;87947;-90
2023/11/19 08:12:58;;;;;;;2.42;1.20;;;21.50;60.70;;;;;;4926977;28;89590;-91
2023/11/19 08:15:24;;;;;;;4.43;1.90;;;21.50;60.70;;;;;;4922344;28;91937;-90
2023/11/19 08:17:50;;;;;;;8.63;1.73;;;21.50;60.70;;;;;;4923854;28;89740;-90
2023/11/19 08:20:16;;;;;;;8.77;1.92;;;21.50;60.70;;;;;;4925196;28;87678;-90
2023/11/19 08:22:42;;;;;;;2.75;1.15;;;21.50;60.90;;;;;;4906884;28;88978;-90
2023/11/19 08:25:08;;;;;;;3.55;1.35;;;21.50;60.90;;;;;;4924999;28;90643;-90
2023/11/19 08:27:34;;;;;;;4.22;1.50;;;21.50;60.80;;;;;;4924040;28;90025;-89
2023/11/19 08:29:59;;;;;;;3.38;1.42;;;21.50;60.90;;;;;;4923105;28;87282;-89
2023/11/19 08:32:28;;;;;;;4.50;1.75;;;21.50;60.90;;;;;;4926094;28;90049;-90
2023/11/19 08:34:54;;;;;;;7.23;1.90;;;21.50;61.00;;;;;;4920780;28;90261;-90
2023/11/19 08:37:21;;;;;;;7.32;1.73;;;21.50;60.50;;;;;;4925273;28;91750;-93
2023/11/19 08:39:48;;;;;;;13.60;2.38;;;21.50;60.40;;;;;;4926674;28;88434;-92
2023/11/19 08:42:13;;;;;;;8.52;2.22;;;21.50;60.40;;;;;;4926869;28;87333;-93
2023/11/19 08:44:43;;;;;;;10.57;2.55;;;21.60;60.60;;;;;;4924906;28;87358;-91
2023/11/19 08:47:11;;;;;;;8.52;2.60;;;21.60;60.30;;;;;;4922471;28;87509;-88
2023/11/19 08:49:36;;;;;;;10.38;2.88;;;21.60;60.50;;;;;;4923460;28;87616;-92
2023/11/19 08:52:02;;;;;;;13.55;2.83;;;21.60;60.20;;;;;;4915499;28;88662;-92
2023/11/19 08:54:28;;;;;;;10.00;2.75;;;21.60;60.00;;;;;;4923307;28;89744;-89
2023/11/19 08:56:53;;;;;;;13.00;2.58;;;21.60;60.00;;;;;;4924074;28;91572;-91
2023/11/19 08:59:19;;;;;;;15.25;3.88;;;21.60;60.10;;;;;;4923453;28;87209;-91
2023/11/19 09:01:45;;;;;;;26.05;5.93;;;21.60;60.10;;;;;;4919709;28;88554;-91
2023/11/19 09:04:11;;;;;;;18.00;4.70;;;21.60;59.50;;;;;;4917799;28;92484;-88
2023/11/19 09:06:37;;;;;;;20.27;5.28;;;21.60;59.70;;;;;;4917105;28;91105;-89
2023/11/19 09:09:03;;;;;;;27.25;6.00;;;21.60;59.40;;;;;;4919767;28;87162;-89
2023/11/19 09:11:30;;;;;;;20.30;5.15;;;21.60;58.80;;;;;;4917884;28;89548;-90
2023/11/19 09:13:55;;;;;;;27.05;6.57;;;21.60;58.70;;;;;;4914430;28;89195;-90
2023/11/19 09:16:21;;;;;;;19.77;5.72;;;21.60;58.60;;;;;;4926831;28;90832;-89
2023/11/19 09:18:47;;;;;;;23.00;6.32;;;21.60;58.80;;;;;;4924607;28;87664;-89
2023/11/19 09:21:12;;;;;;;20.05;5.18;;;21.60;58.80;;;;;;4924527;28;89267;-87
2023/11/19 09:23:41;;;;;;;18.67;5.22;;;21.70;59.20;;;;;;4924804;28;91319;-90
2023/11/19 09:26:10;;;;;;;27.98;5.57;;;21.60;59.00;;;;;;4920782;28;90518;-88
2023/11/19 09:28:36;;;;;;;22.77;5.43;;;21.60;58.90;;;;;;4924017;28;88753;-88
2023/11/19 09:31:04;;;;;;;15.85;5.20;;;21.60;58.70;;;;;;4917325;28;87931;-89
2023/11/19 09:33:30;;;;;;;17.23;5.20;;;21.60;58.90;;;;;;4924135;28;89046;-88
2023/11/19 09:35:56;;;;;;;15.38;4.72;;;21.60;58.50;;;;;;4926006;28;89735;-90
2023/11/19 09:38:22;;;;;;;23.75;5.25;;;21.60;58.40;;;;;;4927903;28;87057;-88
2023/11/19 09:40:48;;;;;;;21.83;5.22;;;21.60;58.20;;;;;;4929579;28;87764;-90
2023/11/19 09:43:15;;;;;;;18.77;4.32;;;21.60;58.90;;;;;;4928763;28;88975;-89
2023/11/19 09:45:51;;;;;;;17.85;5.25;;;21.60;58.20;;;;;;4924497;28;89791;-87
2023/11/19 09:48:18;;;;;;;16.73;4.38;;;21.60;57.80;;;;;;4926199;28;87186;-91
2023/11/19 09:50:48;;;;;;;14.15;4.15;;;21.60;58.20;;;;;;4927134;28;89991;-90
2023/11/19 09:53:15;;;;;;;14.15;4.10;;;21.60;58.30;;;;;;4928677;28;89650;-89
2023/11/19 09:55:41;;;;;;;16.90;4.75;;;21.60;57.90;;;;;;4932034;28;93316;-91
2023/11/19 09:58:07;;;;;;;18.17;4.93;;;21.60;58.10;;;;;;4929006;28;87830;-90
2023/11/19 10:00:34;;;;;;;18.00;5.38;;;21.60;58.00;;;;;;4931335;28;87329;-92
2023/11/19 10:03:00;;;;;;;16.08;4.72;;;21.60;57.70;;;;;;4923531;28;88053;-92
2023/11/19 10:05:26;;;;;;;20.27;5.45;;;21.60;57.80;;;;;;4925845;28;90780;-91
2023/11/19 10:07:53;;;;;;;14.27;3.63;;;21.60;57.40;;;;;;4927324;28;87620;-90
2023/11/19 10:10:20;;;;;;;15.38;3.78;;;21.60;57.20;;;;;;4923688;28;89081;-89
2023/11/19 10:12:48;;;;;;;10.40;3.40;;;21.60;55.70;;;;;;4921920;28;89305;-88
2023/11/19 10:15:22;;;;;;;15.18;3.97;;;21.50;55.30;;;;;;4920365;28;87549;-89
2023/11/19 10:17:48;;;;;;;15.23;4.22;;;21.60;56.00;;;;;;4920188;28;88570;-88
2023/11/19 10:20:13;;;;;;;14.70;3.97;;;21.60;56.50;;;;;;4922899;28;87775;-90
2023/11/19 10:22:39;;;;;;;14.68;3.88;;;21.60;56.50;;;;;;4925200;28;89277;-87
2023/11/19 10:25:26;;;;;;;14.10;3.70;;;21.60;56.50;;;;;;4924398;28;88488;-88
2023/11/19 10:27:52;;;;;;;18.25;4.43;;;21.60;56.30;;;;;;4932725;28;87602;-87
2023/11/19 10:30:26;;;;;;;14.10;3.55;;;21.60;55.40;;;;;;4927265;28;89191;-87
2023/11/19 10:33:10;;;;;;;12.98;4.07;;;21.60;55.10;;;;;;4926255;28;89227;-87
2023/11/19 10:36:01;;;;;;;13.77;3.92;;;21.70;54.90;;;;;;4929726;28;89221;-87
2023/11/19 10:38:28;;;;;;;19.63;4.40;;;21.60;55.00;;;;;;4930371;28;87018;-87
2023/11/19 10:40:54;;;;;;;27.98;6.57;;;21.70;55.30;;;;;;4927664;28;90860;-92
2023/11/19 10:43:24;;;;;;;28.35;7.13;;;21.60;55.30;;;;;;4945011;28;88748;-86
2023/11/19 10:45:50;;;;;;;29.65;8.45;;;21.60;54.90;;;;;;4923272;28;89454;-87
2023/11/19 10:48:16;;;;;;;25.33;8.00;;;21.60;55.10;;;;;;4924511;28;87045;-87
2023/11/19 10:50:47;;;;;;;32.90;7.43;;;21.70;55.50;;;;;;4929655;28;89207;-89
2023/11/19 10:53:13;;;;;;;24.42;6.95;;;21.60;56.20;;;;;;4931290;28;88238;-88
2023/11/19 10:55:39;;;;;;;22.95;7.25;;;21.60;55.70;;;;;;4930683;28;87333;-89
2023/11/19 10:58:06;;;;;;;24.60;6.95;;;21.60;55.30;;;;;;4926836;28;87508;-90
2023/11/19 11:00:53;;;;;;;19.95;6.28;;;21.60;55.80;;;;;;4925178;28;89129;-88
2023/11/19 11:03:21;;;;;;;29.77;6.68;;;21.60;55.70;;;;;;4923070;28;89116;-88
2023/11/19 11:05:47;;;;;;;25.40;6.60;;;21.60;55.90;;;;;;4925506;28;89702;-89
2023/11/19 11:08:13;;;;;;;23.55;6.13;;;21.60;55.70;;;;;;4926159;28;87992;-88
2023/11/19 11:10:52;;;;;;;24.73;6.45;;;21.60;55.80;;;;;;4940143;28;86869;-88
2023/11/19 11:13:18;;;;;;;29.17;6.97;;;21.60;56.00;;;;;;4935684;28;94390;-88
2023/11/19 11:16:06;;;;;;;23.17;7.22;;;21.60;56.20;;;;;;4941458;28;89759;-86
2023/11/19 11:18:32;;;;;;;23.63;6.25;;;21.60;57.40;;;;;;4941883;28;86746;-87
2023/11/19 11:21:09;;;;;;;20.20;5.50;;;21.60;57.90;;;;;;4938828;28;88517;-89
2023/11/19 11:24:06;;;;;;;26.52;5.95;;;21.60;57.80;;;;;;4940789;28;88331;-89
2023/11/19 11:27:04;;;;;;;24.42;5.97;;;21.60;58.10;;;;;;4952413;28;88701;-91
2023/11/19 11:29:44;;;;;;;20.58;5.53;;;21.60;58.00;;;;;;4940783;28;86784;-90
2023/11/19 11:32:23;;;;;;;20.98;4.90;;;21.60;57.60;;;;;;4939539;28;87812;-88
2023/11/19 11:35:26;;;;;;;17.75;5.68;;;21.70;57.70;;;;;;4939881;28;90103;-92
2023/11/19 11:38:00;;;;;;;18.80;5.68;;;21.70;57.60;;;;;;4930847;28;90949;-90
2023/11/19 11:40:26;;;;;;;14.02;4.22;;;21.70;57.80;;;;;;4944946;28;86921;-92
2023/11/19 11:42:52;;;;;;;17.30;4.85;;;21.70;57.50;;;;;;4925714;28;87883;-88
2023/11/19 11:45:19;;;;;;;16.55;5.07;;;21.70;57.60;;;;;;4925310;28;90025;-90
2023/11/19 11:47:54;;;;;;;16.95;4.82;;;21.70;57.60;;;;;;4923146;28;88746;-90
2023/11/19 11:50:20;;;;;;;11.55;4.10;;;21.80;57.70;;;;;;4923941;28;87346;-88
2023/11/19 11:52:58;;;;;;;19.42;4.07;;;21.80;57.60;;;;;;4924681;28;88681;-91
2023/11/19 11:55:50;;;;;;;19.90;5.18;;;21.80;57.40;;;;;;4925006;28;90128;-93
2023/11/19 11:58:20;;;;;;;16.38;5.18;;;21.80;57.80;;;;;;4916605;28;93201;-91
2023/11/19 12:00:47;;;;;;;15.80;4.57;;;21.80;57.80;;;;;;4926053;28;88533;-92
2023/11/19 12:03:13;;;;;;;15.48;4.57;;;21.80;57.20;;;;;;4924215;28;88920;-90
2023/11/19 12:05:50;;;;;;;15.68;4.30;;;21.80;56.70;;;;;;4925209;28;90036;-91
2023/11/19 12:08:25;;;;;;;15.48;4.63;;;21.80;56.90;;;;;;4921651;28;88540;-91
2023/11/19 12:10:52;;;;;;;15.73;4.93;;;21.80;57.30;;;;;;4920501;28;88645;-90
2023/11/19 12:13:19;;;;;;;14.88;4.00;;;21.80;57.70;;;;;;4925866;28;89112;-93
2023/11/19 12:16:07;;;;;;;16.58;5.07;;;21.80;57.40;;;;;;4919009;28;90024;-91
2023/11/19 12:18:33;;;;;;;13.05;4.13;;;21.80;57.50;;;;;;4925662;28;87816;-91
2023/11/19 12:21:05;;;;;;;15.77;3.97;;;21.80;57.50;;;;;;4921613;28;87663;-92
2023/11/19 12:23:31;;;;;;;12.95;4.40;;;21.90;57.50;;;;;;4922217;28;89116;-92
2023/11/19 12:33:43;;;;;;;14.35;3.38;;;21.90;57.60;;;;;;5068215;23;87467;-92
2023/11/19 12:36:09;;;;;;;10.88;3.95;;;22.00;57.60;;;;;;4932472;28;90649;-94
2023/11/19 12:38:36;;;;;;;12.68;4.13;;;22.00;57.80;;;;;;4920373;28;89083;-94
2023/11/19 12:41:11;;;;;;;13.00;3.00;;;22.00;57.70;;;;;;4930966;28;87160;-94
2023/11/19 12:43:46;;;;;;;9.48;3.70;;;22.00;57.70;;;;;;4925497;28;89438;-93
2023/11/19 12:46:22;;;;;;;12.32;4.45;;;22.10;57.70;;;;;;4914930;28;93494;-94
2023/11/19 12:48:51;;;;;;;10.13;3.83;;;22.10;57.60;;;;;;4915429;28;89851;-94
2023/11/19 12:51:17;;;;;;;;;;;22.10;57.50;;;;;;4908673;28;89028;-94
2023/11/19 12:53:57;;;;;;;9.07;3.55;;;22.10;57.60;;;;;;4916542;28;88093;-94
2023/11/19 12:56:24;;;;;;;13.27;4.10;;;22.10;57.70;;;;;;4922502;28;89415;-95
2023/11/19 12:58:50;;;;;;;9.98;3.15;;;22.10;57.50;;;;;;4923583;28;88644;-94
2023/11/19 13:01:20;;;;;;;8.80;3.22;;;22.10;57.50;;;;;;4915246;28;87603;-94
2023/11/19 13:04:06;;;;;;;12.93;3.67;;;22.10;57.70;;;;;;4930178;28;88781;-92
2023/11/19 13:06:32;;;;;;;13.23;4.15;;;22.10;57.80;;;;;;4912738;28;90002;-92